Time;durP1;ratioP1;P1;durP2;ratioP2;P2;SDS_P1;SDS_P2;PMS_P1;PMS_P2;Temp;Humidity;BMP_temperature;BMP_pressure;BME280_temperature;BME280_humidity;BME280_pressure;Samples;Min_cycle;Max_cycle;Signal;HPM_P1;HPM_P2
2023/08/05 00:00:51;;;;;;;7.90;3.90;;;17.20;99.90;;;;;;5032136;28;20531;-47
2023/08/05 00:03:17;;;;;;;5.28;3.92;;;17.00;99.90;;;;;;5031825;28;20207;-47
2023/08/05 00:05:43;;;;;;;7.53;3.72;;;17.00;99.90;;;;;;5032178;28;20199;-47
2023/08/05 00:08:08;;;;;;;8.95;4.40;;;16.90;99.90;;;;;;5031405;28;20167;-47
2023/08/05 00:10:34;;;;;;;8.20;3.85;;;17.10;99.90;;;;;;5031897;28;20163;-47
2023/08/05 00:13:00;;;;;;;8.15;4.00;;;16.90;99.90;;;;;;5023535;28;20234;-47
2023/08/05 00:15:25;;;;;;;9.90;4.25;;;17.10;99.90;;;;;;5012339;28;20176;-46
2023/08/05 00:17:51;;;;;;;12.18;4.13;;;17.10;99.90;;;;;;5012077;28;20263;-47
2023/08/05 00:20:16;;;;;;;6.38;4.07;;;16.90;99.90;;;;;;5011892;28;20180;-47
2023/08/05 00:22:42;;;;;;;7.85;4.00;;;17.10;99.90;;;;;;5011926;28;20199;-47
2023/08/05 00:25:08;;;;;;;9.50;3.72;;;17.20;99.90;;;;;;5011881;28;20182;-47
2023/08/05 00:27:33;;;;;;;8.73;3.65;;;17.10;99.90;;;;;;5011917;28;20256;-47
2023/08/05 00:29:59;;;;;;;11.27;3.90;;;17.10;99.90;;;;;;5011937;28;20173;-47
2023/08/05 00:32:26;;;;;;;7.80;3.97;;;16.90;99.90;;;;;;5012499;28;20178;-51
2023/08/05 00:34:52;;;;;;;5.97;3.90;;;17.00;99.90;;;;;;5011747;28;20171;-52
2023/08/05 00:37:18;;;;;;;7.88;3.72;;;16.90;99.90;;;;;;5011771;28;20172;-51
2023/08/05 00:39:43;;;;;;;8.63;3.55;;;16.80;99.90;;;;;;5011454;28;20180;-50
2023/08/05 00:42:09;;;;;;;12.25;3.90;;;16.90;99.90;;;;;;5012695;28;20178;-50
2023/08/05 00:44:34;;;;;;;4.07;3.60;;;16.90;99.90;;;;;;5030938;28;20682;-50
2023/08/05 00:47:00;;;;;;;7.32;4.05;;;16.80;99.90;;;;;;5031058;28;20187;-52
2023/08/05 00:49:25;;;;;;;6.93;4.50;;;16.90;99.90;;;;;;5031613;28;20575;-52
2023/08/05 00:51:52;;;;;;;6.60;4.25;;;16.90;99.90;;;;;;5031077;28;20167;-47
2023/08/05 00:54:17;;;;;;;13.43;4.05;;;16.80;99.90;;;;;;5031139;28;20168;-47
2023/08/05 00:56:45;;;;;;;10.18;4.18;;;16.80;99.90;;;;;;5031114;28;20183;-47
2023/08/05 00:59:11;;;;;;;5.28;4.13;;;16.70;99.90;;;;;;5030974;28;20262;-48
2023/08/05 01:01:37;;;;;;;10.02;4.10;;;16.60;99.90;;;;;;5031293;28;20201;-47
2023/08/05 01:04:03;;;;;;;8.32;3.97;;;16.70;99.90;;;;;;5030230;28;20635;-47
2023/08/05 01:06:29;;;;;;;9.32;4.22;;;16.60;99.90;;;;;;5030950;28;20175;-47
2023/08/05 01:08:57;;;;;;;8.35;3.85;;;16.50;99.90;;;;;;5031682;28;20210;-47
2023/08/05 01:11:23;;;;;;;7.15;4.07;;;16.50;99.90;;;;;;5029557;28;20209;-47
2023/08/05 01:13:48;;;;;;;13.32;4.32;;;16.60;99.90;;;;;;5030966;28;20171;-47
2023/08/05 01:16:14;;;;;;;7.22;3.72;;;16.60;99.90;;;;;;5030857;28;20246;-47
2023/08/05 01:18:40;;;;;;;9.32;4.32;;;16.30;99.90;;;;;;5030756;28;20199;-47
2023/08/05 01:21:23;;;;;;;8.82;4.57;;;16.30;99.90;;;;;;5031105;28;20306;-48
2023/08/05 01:23:48;;;;;;;6.35;3.83;;;16.40;99.90;;;;;;5030785;28;20201;-47
2023/08/05 01:26:14;;;;;;;8.68;5.07;;;16.20;99.90;;;;;;5031114;28;20167;-47
2023/08/05 01:28:40;;;;;;;5.45;3.97;;;16.20;99.90;;;;;;5030839;28;20631;-47
2023/08/05 01:31:08;;;;;;;6.78;3.78;;;16.00;99.90;;;;;;5030840;28;20174;-47
2023/08/05 01:33:34;;;;;;;9.95;4.55;;;16.20;99.90;;;;;;5029148;28;20201;-47
2023/08/05 01:36:00;;;;;;;10.80;5.25;;;16.10;99.90;;;;;;5030227;28;20190;-47
2023/08/05 01:38:25;;;;;;;4.97;4.47;;;16.10;99.90;;;;;;5029907;28;20534;-47
2023/08/05 01:40:51;;;;;;;7.95;4.55;;;16.00;99.90;;;;;;5030690;28;20642;-47
2023/08/05 01:43:17;;;;;;;7.35;4.63;;;16.20;99.90;;;;;;5030736;28;20613;-47
2023/08/05 01:45:42;;;;;;;7.63;4.50;;;16.20;99.90;;;;;;5030738;28;20642;-47
2023/08/05 01:48:08;;;;;;;8.85;4.72;;;16.10;99.90;;;;;;5030696;28;20605;-47
2023/08/05 01:50:35;;;;;;;11.32;4.97;;;16.20;99.90;;;;;;5029003;28;20547;-47
2023/08/05 01:53:00;;;;;;;6.63;4.95;;;16.20;99.90;;;;;;5030490;28;20163;-48
2023/08/05 01:55:26;;;;;;;6.63;4.55;;;16.10;99.90;;;;;;5030890;28;20258;-47
2023/08/05 01:57:51;;;;;;;7.10;4.38;;;16.20;99.90;;;;;;5032217;28;20167;-47
2023/08/05 02:00:17;;;;;;;10.65;4.85;;;16.00;99.90;;;;;;5034764;28;20186;-48
2023/08/05 02:02:42;;;;;;;8.43;4.75;;;16.10;99.90;;;;;;5034070;28;20826;-52
2023/08/05 02:05:09;;;;;;;7.97;5.13;;;16.10;99.90;;;;;;5014563;28;20521;-48
2023/08/05 02:07:34;;;;;;;9.82;4.80;;;16.10;99.90;;;;;;5014319;28;20211;-49
2023/08/05 02:10:00;;;;;;;6.47;4.43;;;16.00;99.90;;;;;;5014388;28;20172;-49
2023/08/05 02:12:25;;;;;;;5.15;4.57;;;16.00;99.90;;;;;;5014547;28;20220;-48
2023/08/05 02:14:51;;;;;;;8.73;4.80;;;16.00;99.90;;;;;;5014342;28;20175;-48
2023/08/05 02:17:17;;;;;;;8.50;4.72;;;16.00;99.90;;;;;;5014239;28;20180;-48
2023/08/05 02:19:42;;;;;;;10.18;4.95;;;16.00;99.90;;;;;;5014213;28;20194;-48
2023/08/05 02:22:08;;;;;;;7.65;5.30;;;16.00;99.90;;;;;;5014073;28;20238;-47
2023/08/05 02:24:33;;;;;;;6.53;5.10;;;15.90;99.90;;;;;;5014221;28;20306;-47
2023/08/05 02:26:59;;;;;;;13.23;4.78;;;15.70;99.90;;;;;;5014134;28;20167;-50
2023/08/05 02:29:24;;;;;;;5.63;4.63;;;15.70;99.90;;;;;;5014497;28;20230;-48
2023/08/05 02:31:50;;;;;;;4.97;4.47;;;15.80;99.90;;;;;;5014048;28;20526;-52
2023/08/05 02:34:15;;;;;;;6.00;4.68;;;15.60;99.90;;;;;;5028560;28;20186;-48
2023/08/05 02:36:41;;;;;;;9.02;4.63;;;15.60;99.90;;;;;;5033773;28;20178;-47
2023/08/05 02:39:06;;;;;;;5.85;4.88;;;15.70;99.90;;;;;;5033794;28;20171;-48
2023/08/05 02:41:32;;;;;;;8.65;5.90;;;15.80;99.90;;;;;;5033202;28;20776;-52
2023/08/05 02:43:58;;;;;;;7.28;5.63;;;15.70;99.90;;;;;;5033521;28;20222;-47
2023/08/05 02:46:23;;;;;;;7.32;5.22;;;15.80;99.90;;;;;;5034140;28;20174;-50
2023/08/05 02:48:49;;;;;;;6.75;4.60;;;15.80;99.90;;;;;;5033517;28;20262;-49
2023/08/05 02:51:14;;;;;;;10.48;5.38;;;15.80;99.90;;;;;;5033333;28;20205;-51
2023/08/05 02:53:40;;;;;;;7.20;5.13;;;15.70;99.90;;;;;;5033409;28;20602;-49
2023/08/05 02:56:06;;;;;;;8.52;5.38;;;15.70;99.90;;;;;;5033219;28;20631;-51
2023/08/05 02:58:32;;;;;;;10.75;5.07;;;15.60;99.90;;;;;;5033432;28;20183;-52
2023/08/05 03:01:08;;;;;;;7.18;5.13;;;15.60;99.90;;;;;;5033224;28;20178;-48
2023/08/05 03:03:35;;;;;;;9.30;5.68;;;15.60;99.90;;;;;;5023933;28;20254;-50
2023/08/05 03:06:00;;;;;;;8.10;5.00;;;15.50;99.90;;;;;;5013069;28;20587;-50
2023/08/05 03:08:26;;;;;;;8.00;5.50;;;15.40;99.90;;;;;;5013410;28;20171;-51
2023/08/05 03:10:59;;;;;;;5.45;4.70;;;15.50;99.90;;;;;;5013231;28;20527;-52
2023/08/05 03:13:25;;;;;;;8.93;5.22;;;15.50;99.90;;;;;;5013375;28;20597;-52
2023/08/05 03:15:51;;;;;;;6.45;5.10;;;15.40;99.90;;;;;;5013328;28;20181;-51
2023/08/05 03:18:17;;;;;;;6.63;4.45;;;15.30;99.90;;;;;;5013262;28;20168;-48
2023/08/05 03:20:43;;;;;;;9.43;5.45;;;15.30;99.90;;;;;;5013024;28;20314;-48
2023/08/05 03:23:09;;;;;;;6.40;4.88;;;15.20;99.90;;;;;;5013005;28;20199;-50
2023/08/05 03:25:34;;;;;;;6.57;4.82;;;15.30;99.90;;;;;;5013320;28;20192;-48
2023/08/05 03:28:00;;;;;;;5.65;5.13;;;15.30;99.90;;;;;;5012853;28;20640;-48
2023/08/05 03:30:25;;;;;;;7.50;4.75;;;15.20;99.90;;;;;;5012031;28;20179;-48
2023/08/05 03:32:51;;;;;;;7.25;4.68;;;15.10;99.90;;;;;;5018155;28;20178;-53
2023/08/05 03:35:17;;;;;;;5.43;4.93;;;15.20;99.90;;;;;;5032539;28;20651;-47
2023/08/05 03:37:44;;;;;;;6.70;4.65;;;15.20;99.90;;;;;;5032547;28;20178;-47
2023/08/05 03:40:09;;;;;;;9.75;5.43;;;15.20;99.90;;;;;;5032515;28;20641;-47
2023/08/05 03:42:35;;;;;;;8.35;4.63;;;15.00;99.90;;;;;;5032418;28;20237;-47
2023/08/05 03:45:01;;;;;;;7.70;4.68;;;15.00;99.90;;;;;;5032420;28;20182;-47
2023/08/05 03:47:26;;;;;;;9.05;4.88;;;15.10;99.90;;;;;;5032875;28;20249;-47
2023/08/05 03:49:52;;;;;;;9.90;4.90;;;14.90;99.90;;;;;;5032517;28;20190;-47
2023/08/05 03:52:17;;;;;;;9.60;5.03;;;15.00;99.90;;;;;;5032424;28;20171;-47
2023/08/05 03:54:44;;;;;;;7.05;4.95;;;15.00;99.90;;;;;;5032355;28;20174;-47
2023/08/05 03:57:09;;;;;;;7.25;4.85;;;15.10;99.90;;;;;;5032189;28;20635;-47
2023/08/05 03:59:36;;;;;;;8.85;5.50;;;15.00;99.90;;;;;;5032165;28;20167;-47
2023/08/05 04:02:03;;;;;;;6.55;5.10;;;15.00;99.90;;;;;;5032148;28;20195;-47
2023/08/05 04:04:28;;;;;;;7.13;4.57;;;14.90;99.90;;;;;;5031606;28;20213;-47
2023/08/05 04:06:54;;;;;;;6.22;4.88;;;14.90;99.90;;;;;;5032468;28;20167;-47
2023/08/05 04:09:20;;;;;;;6.00;4.95;;;14.90;99.90;;;;;;5031906;28;20182;-47
2023/08/05 04:11:48;;;;;;;9.32;5.22;;;14.90;99.90;;;;;;5021833;28;20243;-47
2023/08/05 04:14:16;;;;;;;13.80;5.18;;;15.00;99.90;;;;;;5012404;28;20176;-46
2023/08/05 04:16:42;;;;;;;7.30;5.32;;;15.10;99.90;;;;;;5010844;28;20203;-48
2023/08/05 04:19:08;;;;;;;9.02;4.95;;;15.10;99.90;;;;;;5011999;28;20603;-46
2023/08/05 04:21:35;;;;;;;7.85;5.10;;;15.00;99.90;;;;;;5011529;28;20175;-46
2023/08/05 04:24:01;;;;;;;9.85;5.22;;;15.10;99.90;;;;;;5011809;28;20211;-47
2023/08/05 04:26:27;;;;;;;8.40;5.72;;;15.20;99.90;;;;;;5012610;28;20175;-46
2023/08/05 04:28:53;;;;;;;8.38;5.30;;;15.20;99.90;;;;;;5012364;28;20176;-47
2023/08/05 04:31:18;;;;;;;9.93;5.15;;;15.10;99.90;;;;;;5011942;28;20168;-47
2023/08/05 04:33:46;;;;;;;9.40;5.00;;;15.30;99.90;;;;;;5023747;28;20549;-46
2023/08/05 04:36:12;;;;;;;11.55;5.00;;;15.30;99.90;;;;;;5031137;28;20168;-47
2023/08/05 04:38:37;;;;;;;8.38;5.15;;;15.30;99.90;;;;;;5031444;28;20656;-46
2023/08/05 04:41:03;;;;;;;5.45;4.72;;;15.30;99.90;;;;;;5031427;28;20172;-47
2023/08/05 04:43:28;;;;;;;6.38;5.18;;;15.50;99.90;;;;;;5031205;28;20590;-47
2023/08/05 04:45:54;;;;;;;9.68;5.13;;;15.50;99.90;;;;;;5031998;28;20167;-47
2023/08/05 04:48:20;;;;;;;8.05;4.60;;;15.60;99.90;;;;;;5031302;28;20167;-48
2023/08/05 04:50:45;;;;;;;9.57;4.90;;;15.60;99.90;;;;;;5031344;28;20697;-48
2023/08/05 04:53:13;;;;;;;7.45;5.15;;;15.70;99.90;;;;;;5031253;28;20567;-50
2023/08/05 04:55:39;;;;;;;7.63;5.35;;;15.70;99.90;;;;;;5030255;28;20298;-48
2023/08/05 04:58:05;;;;;;;9.07;5.15;;;15.70;99.90;;;;;;5031130;28;20174;-49
2023/08/05 05:00:30;;;;;;;5.50;4.97;;;15.70;99.90;;;;;;5031449;28;20159;-49
2023/08/05 05:02:56;;;;;;;8.00;5.13;;;15.70;99.90;;;;;;5025387;28;20204;-49
2023/08/05 05:05:21;;;;;;;8.50;5.45;;;15.90;99.90;;;;;;5011374;28;20164;-51
2023/08/05 05:07:47;;;;;;;9.98;5.50;;;15.90;99.90;;;;;;5011439;28;20184;-50
2023/08/05 05:10:13;;;;;;;6.07;4.65;;;15.90;99.90;;;;;;5011277;28;20171;-50
2023/08/05 05:12:38;;;;;;;8.98;5.28;;;15.90;99.90;;;;;;5011128;28;20219;-50
2023/08/05 05:15:04;;;;;;;9.68;4.82;;;15.90;99.90;;;;;;5011200;28;20180;-52
2023/08/05 05:17:37;;;;;;;8.48;4.82;;;16.00;99.90;;;;;;5011232;28;20175;-48
2023/08/05 05:20:04;;;;;;;9.05;4.93;;;16.10;99.90;;;;;;5011181;28;20214;-48
2023/08/05 05:22:30;;;;;;;9.82;4.65;;;16.10;99.90;;;;;;5011034;28;20234;-48
2023/08/05 05:24:56;;;;;;;6.85;4.75;;;16.10;99.90;;;;;;5011466;28;20176;-51
2023/08/05 05:27:21;;;;;;;5.88;4.97;;;16.00;99.90;;;;;;5011218;28;20172;-51
2023/08/05 05:29:47;;;;;;;6.72;4.82;;;16.00;99.90;;;;;;5011148;28;20168;-48
2023/08/05 05:32:12;;;;;;;8.15;5.72;;;15.90;99.90;;;;;;5014878;28;20164;-49
2023/08/05 05:34:38;;;;;;;8.43;5.47;;;16.00;99.90;;;;;;5035102;28;20163;-48
2023/08/05 05:37:04;;;;;;;7.15;5.43;;;15.90;99.90;;;;;;5034999;28;20202;-48
2023/08/05 05:39:29;;;;;;;6.53;5.63;;;16.10;99.90;;;;;;5034735;28;20167;-49
2023/08/05 05:41:55;;;;;;;11.07;5.25;;;16.10;99.90;;;;;;5034756;28;20183;-50
2023/08/05 05:44:24;;;;;;;6.22;5.03;;;16.30;99.90;;;;;;5034842;28;20207;-51
2023/08/05 05:46:50;;;;;;;7.32;4.85;;;16.50;99.90;;;;;;5034587;28;20167;-48
2023/08/05 05:49:15;;;;;;;9.48;4.90;;;16.70;99.90;;;;;;5034667;28;20627;-48
2023/08/05 05:51:45;;;;;;;7.70;5.80;;;16.70;99.90;;;;;;5034899;28;20167;-49
2023/08/05 05:54:11;;;;;;;6.55;5.70;;;16.70;99.90;;;;;;5034397;28;20207;-52
2023/08/05 05:56:37;;;;;;;6.70;5.95;;;16.90;99.90;;;;;;5034429;28;20694;-52
2023/08/05 05:59:02;;;;;;;9.52;6.57;;;17.00;99.90;;;;;;5034326;28;20631;-51
2023/08/05 06:01:28;;;;;;;8.65;6.22;;;18.30;99.90;;;;;;5034445;28;20685;-51
2023/08/05 06:03:53;;;;;;;13.20;6.57;;;17.30;99.90;;;;;;5032855;28;20207;-52
2023/08/05 06:06:26;;;;;;;9.98;7.30;;;17.40;99.90;;;;;;5033914;28;20176;-51
2023/08/05 06:08:52;;;;;;;9.88;7.10;;;17.50;99.90;;;;;;5034642;28;20168;-51
2023/08/05 06:11:17;;;;;;;10.85;8.15;;;17.60;99.90;;;;;;5034017;28;20685;-52
2023/08/05 06:13:43;;;;;;;10.10;7.28;;;17.60;99.90;;;;;;5034027;28;20194;-52
2023/08/05 06:16:08;;;;;;;12.07;6.65;;;17.90;99.90;;;;;;5033893;28;20167;-52
2023/08/05 06:18:34;;;;;;;12.00;6.65;;;17.90;99.90;;;;;;5033703;28;20183;-51
2023/08/05 06:20:59;;;;;;;11.25;6.70;;;18.00;99.90;;;;;;5034340;28;20262;-53
2023/08/05 06:23:25;;;;;;;8.35;6.10;;;18.20;99.90;;;;;;5034358;28;20659;-52
2023/08/05 06:25:50;;;;;;;18.02;6.00;;;18.20;99.90;;;;;;5034181;28;20176;-51
2023/08/05 06:28:16;;;;;;;10.15;6.20;;;18.20;99.90;;;;;;5033206;28;20863;-50
2023/08/05 06:30:43;;;;;;;9.05;6.40;;;18.00;99.90;;;;;;5033751;28;20172;-52
2023/08/05 06:33:09;;;;;;;8.73;6.20;;;18.10;99.90;;;;;;5022217;28;20176;-51
2023/08/05 06:35:35;;;;;;;7.63;6.05;;;18.20;99.90;;;;;;5014089;28;20652;-51
2023/08/05 06:38:00;;;;;;;12.40;6.55;;;18.50;99.90;;;;;;5013796;28;20176;-52
2023/08/05 06:40:26;;;;;;;9.27;7.10;;;18.60;99.90;;;;;;5014193;28;20187;-52
2023/08/05 06:42:51;;;;;;;12.93;7.90;;;18.70;99.90;;;;;;5012792;28;20250;-52
2023/08/05 06:45:17;;;;;;;12.63;8.75;;;18.60;99.90;;;;;;5013954;28;20176;-52
2023/08/05 06:47:42;;;;;;;12.65;9.10;;;18.60;99.90;;;;;;5013540;28;20171;-52
2023/08/05 06:50:09;;;;;;;16.65;10.13;;;18.90;99.90;;;;;;5013550;28;20227;-51
2023/08/05 06:52:35;;;;;;;14.35;8.57;;;19.10;99.90;;;;;;5013860;28;20258;-47
2023/08/05 06:55:02;;;;;;;13.38;7.60;;;19.10;99.90;;;;;;5013411;28;20214;-51
2023/08/05 06:57:28;;;;;;;11.10;6.88;;;19.20;99.90;;;;;;5013210;28;20160;-52
2023/08/05 06:59:54;;;;;;;12.50;6.82;;;19.50;99.90;;;;;;5014046;28;20196;-50
2023/08/05 07:02:19;;;;;;;9.23;6.95;;;19.70;99.90;;;;;;5017689;28;20203;-49
2023/08/05 07:04:45;;;;;;;9.15;7.60;;;19.50;99.90;;;;;;5033038;28;20262;-52
2023/08/05 07:07:11;;;;;;;8.57;6.63;;;19.60;99.90;;;;;;5033085;28;20165;-51
2023/08/05 07:09:36;;;;;;;9.68;7.90;;;19.60;99.90;;;;;;5033265;28;20194;-52
2023/08/05 07:12:02;;;;;;;11.20;7.85;;;19.60;99.90;;;;;;5032991;28;20345;-51
2023/08/05 07:14:28;;;;;;;13.45;8.38;;;19.80;99.90;;;;;;5032721;28;20543;-51
2023/08/05 07:16:53;;;;;;;9.90;7.97;;;20.20;99.90;;;;;;5033397;28;20171;-52
2023/08/05 07:19:19;;;;;;;11.30;9.25;;;20.40;99.90;;;;;;5033079;28;20178;-51
2023/08/05 07:21:44;;;;;;;9.63;7.70;;;20.40;99.90;;;;;;5032744;28;20164;-51
2023/08/05 07:24:10;;;;;;;10.43;8.57;;;20.30;99.90;;;;;;5032659;28;20312;-50
2023/08/05 07:26:35;;;;;;;11.65;6.72;;;20.30;99.90;;;;;;5032456;28;20661;-48
2023/08/05 07:29:01;;;;;;;12.00;7.93;;;20.40;99.90;;;;;;5032563;28;20701;-51
2023/08/05 07:31:27;;;;;;;12.27;7.95;;;20.40;99.90;;;;;;5032644;28;20540;-50
2023/08/05 07:33:52;;;;;;;11.73;7.45;;;20.60;99.90;;;;;;5033210;28;20677;-52
2023/08/05 07:36:22;;;;;;;10.80;7.18;;;20.50;99.90;;;;;;5032501;28;20190;-52
2023/08/05 07:38:47;;;;;;;8.23;6.97;;;20.50;99.90;;;;;;5032596;28;20517;-52
2023/08/05 07:41:14;;;;;;;8.52;6.57;;;20.70;99.90;;;;;;5032201;28;20238;-48
2023/08/05 07:43:42;;;;;;;8.48;6.55;;;20.60;99.90;;;;;;5032361;28;20245;-52
2023/08/05 07:46:08;;;;;;;8.63;6.97;;;20.90;99.90;;;;;;5032714;28;20177;-50
2023/08/05 07:48:39;;;;;;;7.97;6.90;;;20.70;99.90;;;;;;5032704;28;20274;-48
2023/08/05 07:51:06;;;;;;;6.75;6.03;;;21.00;99.90;;;;;;5032581;28;20179;-48
2023/08/05 07:53:35;;;;;;;7.25;6.43;;;21.00;99.90;;;;;;5032605;28;20699;-48
2023/08/05 07:56:12;;;;;;;7.13;6.32;;;20.90;99.90;;;;;;5030322;28;20247;-48
2023/08/05 07:58:47;;;;;;;7.88;6.30;;;20.70;99.90;;;;;;5032179;28;20171;-48
2023/08/05 08:01:19;;;;;;;8.93;5.85;;;21.20;99.90;;;;;;5032223;28;20255;-48
2023/08/05 08:03:47;;;;;;;5.88;5.25;;;20.90;99.90;;;;;;5032230;28;20214;-47
2023/08/05 08:06:15;;;;;;;5.72;4.75;;;21.10;99.90;;;;;;5031936;28;20692;-48
2023/08/05 08:08:42;;;;;;;4.90;4.45;;;21.30;99.90;;;;;;5032199;28;20297;-48
2023/08/05 08:11:09;;;;;;;5.88;4.38;;;21.10;99.90;;;;;;5031671;28;20308;-48
2023/08/05 08:13:35;;;;;;;7.55;3.80;;;20.70;99.90;;;;;;5031706;28;20215;-48
2023/08/05 08:16:01;;;;;;;6.13;4.53;;;20.70;99.90;;;;;;5031818;28;20185;-47
2023/08/05 08:18:27;;;;;;;5.25;4.57;;;20.70;99.90;;;;;;5031576;28;20168;-47
2023/08/05 08:20:52;;;;;;;5.90;4.63;;;20.90;99.90;;;;;;5032025;28;20175;-48
2023/08/05 08:23:18;;;;;;;5.60;4.40;;;21.00;99.90;;;;;;5031514;28;20213;-47
2023/08/05 08:25:44;;;;;;;5.50;4.43;;;21.00;99.90;;;;;;5023171;28;20683;-48
2023/08/05 08:28:10;;;;;;;5.30;4.35;;;21.00;99.90;;;;;;5012190;28;20179;-48
2023/08/05 08:30:35;;;;;;;5.70;4.07;;;21.20;99.90;;;;;;5011705;28;20584;-48
2023/08/05 08:33:01;;;;;;;4.50;4.10;;;21.00;99.90;;;;;;5011808;28;20190;-47
2023/08/05 08:35:26;;;;;;;6.07;4.18;;;21.20;99.90;;;;;;5011748;28;20585;-47
2023/08/05 08:37:52;;;;;;;4.38;3.85;;;21.20;99.90;;;;;;5012128;28;20168;-48
2023/08/05 08:40:18;;;;;;;5.30;3.95;;;21.20;99.90;;;;;;5011817;28;20251;-48
2023/08/05 08:42:44;;;;;;;5.00;3.78;;;21.10;99.90;;;;;;5011377;28;20283;-48
2023/08/05 08:45:14;;;;;;;4.80;4.30;;;20.70;99.90;;;;;;5011324;28;20263;-48
2023/08/05 08:47:40;;;;;;;6.70;3.58;;;20.80;99.90;;;;;;5011459;28;20187;-52
2023/08/05 08:50:07;;;;;;;6.65;4.18;;;20.60;99.90;;;;;;5011206;28;20168;-49
2023/08/05 08:52:35;;;;;;;6.10;4.95;;;20.50;99.90;;;;;;5011574;28;20160;-51
2023/08/05 08:55:03;;;;;;;6.82;4.13;;;20.40;99.90;;;;;;5012785;28;20164;-51
2023/08/05 08:57:29;;;;;;;4.97;4.53;;;20.20;99.90;;;;;;5030837;28;20168;-51
2023/08/05 08:59:55;;;;;;;5.78;5.00;;;20.20;99.90;;;;;;5031388;28;20170;-52
2023/08/05 09:02:24;;;;;;;5.47;4.97;;;20.10;99.90;;;;;;5031265;28;20178;-51
2023/08/05 09:04:52;;;;;;;7.07;4.45;;;20.10;99.90;;;;;;5031288;28;20176;-51
2023/08/05 09:07:17;;;;;;;5.75;4.20;;;20.20;99.90;;;;;;5030449;28;20199;-52
2023/08/05 09:09:47;;;;;;;6.50;3.88;;;20.50;99.90;;;;;;5030894;28;20721;-52
2023/08/05 09:12:14;;;;;;;4.78;4.10;;;20.90;99.90;;;;;;5030810;28;20219;-52
2023/08/05 09:14:40;;;;;;;4.40;3.97;;;21.20;99.90;;;;;;5031012;28;20176;-52
2023/08/05 09:17:05;;;;;;;6.82;5.28;;;21.30;99.90;;;;;;5030829;28;20186;-51
2023/08/05 09:19:31;;;;;;;5.10;4.68;;;21.10;99.90;;;;;;5030682;28;20694;-51
2023/08/05 09:22:00;;;;;;;5.70;5.20;;;21.00;99.90;;;;;;5031117;28;20170;-47
2023/08/05 09:24:26;;;;;;;4.88;4.30;;;20.90;99.90;;;;;;5031248;28;20214;-48
2023/08/05 09:26:59;;;;;;;4.60;4.20;;;20.80;99.90;;;;;;5011627;28;20587;-49
2023/08/05 09:29:27;;;;;;;3.53;3.22;;;20.90;99.90;;;;;;5010172;28;20262;-50
2023/08/05 09:32:00;;;;;;;3.38;3.08;;;19.60;99.90;;;;;;5011570;28;20160;-51
2023/08/05 09:34:37;;;;;;;5.38;3.67;;;20.30;99.90;;;;;;5011160;28;20537;-48
2023/08/05 09:37:04;;;;;;;5.97;3.63;;;20.60;99.90;;;;;;5010741;28;20206;-49
2023/08/05 09:39:45;;;;;;;4.40;3.20;;;21.00;99.90;;;;;;5011086;28;20244;-48
2023/08/05 09:42:24;;;;;;;4.63;3.03;;;20.90;99.90;;;;;;5010794;28;20186;-50
2023/08/05 09:44:54;;;;;;;4.95;2.95;;;21.30;99.90;;;;;;5010892;28;20600;-47
2023/08/05 09:47:25;;;;;;;4.18;3.15;;;21.20;99.90;;;;;;5010662;28;20169;-48
2023/08/05 09:49:52;;;;;;;6.85;2.35;;;21.80;99.90;;;;;;5010988;28;20190;-48
2023/08/05 09:52:21;;;;;;;5.93;2.53;;;21.70;99.90;;;;;;5010949;28;20172;-48
2023/08/05 09:54:57;;;;;;;5.88;3.03;;;21.40;99.90;;;;;;5012420;28;20164;-48
2023/08/05 09:57:24;;;;;;;4.00;2.83;;;21.60;99.90;;;;;;5030833;28;20221;-48
2023/08/05 09:59:53;;;;;;;4.28;2.40;;;21.70;99.90;;;;;;5030705;28;20171;-49
2023/08/05 10:02:25;;;;;;;3.15;2.47;;;22.00;99.90;;;;;;5030771;28;20225;-50
2023/08/05 10:04:53;;;;;;;6.55;2.80;;;22.00;99.90;;;;;;5030318;28;20515;-50
2023/08/05 10:07:23;;;;;;;3.55;2.85;;;22.20;99.90;;;;;;5030696;28;20167;-50
2023/08/05 10:09:49;;;;;;;3.28;2.35;;;22.20;99.90;;;;;;5030083;28;20175;-50
2023/08/05 10:12:40;;;;;;;3.22;2.42;;;22.50;99.90;;;;;;5030204;28;20272;-48
2023/08/05 10:15:08;;;;;;;3.42;2.70;;;22.50;99.90;;;;;;5030542;28;20178;-51
2023/08/05 10:17:38;;;;;;;2.47;2.22;;;22.60;99.90;;;;;;5030477;28;20635;-48
2023/08/05 10:20:06;;;;;;;2.97;2.10;;;22.60;99.90;;;;;;5033759;28;20170;-52
2023/08/05 10:22:31;;;;;;;2.08;1.90;;;22.50;99.90;;;;;;5034183;28;20207;-52
2023/08/05 10:24:58;;;;;;;2.10;1.90;;;22.60;99.90;;;;;;5028135;28;20214;-52
2023/08/05 10:27:43;;;;;;;2.38;1.70;;;22.30;99.90;;;;;;5014474;28;20640;-52
2023/08/05 10:30:09;;;;;;;3.15;1.80;;;22.50;99.90;;;;;;5014282;28;20184;-51
2023/08/05 10:32:49;;;;;;;3.53;1.92;;;22.50;99.90;;;;;;5014239;28;20254;-48
2023/08/05 10:35:27;;;;;;;3.33;2.25;;;22.30;99.90;;;;;;5014038;28;20229;-48
2023/08/05 10:38:22;;;;;;;2.25;2.05;;;22.70;99.90;;;;;;5014426;28;20254;-48
2023/08/05 10:40:56;;;;;;;2.10;1.90;;;22.90;99.90;;;;;;5013346;28;20674;-52
2023/08/05 10:43:30;;;;;;;2.15;1.95;;;23.00;99.90;;;;;;5014466;28;20211;-51
2023/08/05 10:46:00;;;;;;;3.33;2.15;;;23.00;99.90;;;;;;5014337;28;20174;-48
2023/08/05 10:48:31;;;;;;;2.38;2.17;;;22.90;99.90;;;;;;5014209;28;20167;-50
2023/08/05 10:50:58;;;;;;;2.20;2.00;;;22.70;99.90;;;;;;5013751;28;20234;-52
2023/08/05 10:53:24;;;;;;;4.45;2.00;;;22.90;99.90;;;;;;5014636;28;20178;-52
2023/08/05 10:55:54;;;;;;;2.35;1.80;;;23.20;99.90;;;;;;5027074;28;20266;-51
2023/08/05 10:58:30;;;;;;;3.13;1.95;;;23.40;99.90;;;;;;5033830;28;20158;-52
2023/08/05 11:00:58;;;;;;;1.75;1.65;;;23.00;99.90;;;;;;5033338;28;20174;-48
2023/08/05 11:03:30;;;;;;;2.30;2.00;;;22.60;99.90;;;;;;5034053;28;20207;-50
2023/08/05 11:06:00;;;;;;;3.30;2.05;;;22.70;99.90;;;;;;5033915;28;20197;-50
2023/08/05 11:08:26;;;;;;;3.40;1.85;;;22.60;99.90;;;;;;5034063;28;20536;-48
2023/08/05 11:10:52;;;;;;;2.00;1.65;;;22.50;99.90;;;;;;5034387;28;20254;-51
2023/08/05 11:13:18;;;;;;;3.17;2.00;;;22.50;99.90;;;;;;5033399;28;20214;-52
2023/08/05 11:16:01;;;;;;;2.13;1.98;;;22.50;99.90;;;;;;5033441;28;20178;-51
2023/08/05 11:18:27;;;;;;;2.95;1.90;;;22.60;99.90;;;;;;5032260;28;20177;-50
2023/08/05 11:20:53;;;;;;;3.28;1.98;;;22.20;99.90;;;;;;5033744;28;20171;-52
2023/08/05 11:23:18;;;;;;;3.58;2.22;;;22.20;99.90;;;;;;5033283;28;20206;-51
2023/08/05 11:25:45;;;;;;;6.75;2.22;;;22.30;99.90;;;;;;5032518;28;20206;-51
2023/08/05 11:28:11;;;;;;;8.20;2.38;;;22.40;99.90;;;;;;5033219;28;20163;-51
2023/08/05 11:30:39;;;;;;;3.70;1.77;;;22.50;99.90;;;;;;5032944;28;20163;-52
2023/08/05 11:33:05;;;;;;;2.35;1.90;;;22.80;99.90;;;;;;5033137;28;20171;-51
2023/08/05 11:35:31;;;;;;;2.65;1.70;;;23.20;99.90;;;;;;5033000;28;20619;-47
2023/08/05 11:37:57;;;;;;;4.63;1.60;;;23.80;99.90;;;;;;5032892;28;20254;-51
2023/08/05 11:40:23;;;;;;;2.15;1.67;;;23.50;99.90;;;;;;5033182;28;20209;-50
2023/08/05 11:42:49;;;;;;;2.88;1.88;;;23.20;99.90;;;;;;5032905;28;20248;-50
2023/08/05 11:45:16;;;;;;;3.55;1.77;;;22.90;99.90;;;;;;5033310;28;20182;-51
2023/08/05 11:47:42;;;;;;;2.05;1.70;;;23.30;99.90;;;;;;5032932;28;20163;-50
2023/08/05 11:50:09;;;;;;;1.80;1.70;;;23.70;99.90;;;;;;5032616;28;20171;-51
2023/08/05 11:52:35;;;;;;;2.75;1.70;;;23.80;99.90;;;;;;5033042;28;20177;-50
2023/08/05 11:55:04;;;;;;;2.22;1.80;;;23.80;99.90;;;;;;5032027;28;20261;-48
2023/08/05 11:57:29;;;;;;;2.25;1.60;;;24.00;99.90;;;;;;5020532;28;20653;-48
2023/08/05 11:59:55;;;;;;;3.60;1.90;;;23.90;99.90;;;;;;5013212;28;20171;-48
2023/08/05 12:02:24;;;;;;;2.40;1.50;;;24.20;99.90;;;;;;5013145;28;20174;-48
2023/08/05 12:04:57;;;;;;;2.92;1.90;;;24.20;99.90;;;;;;5013086;28;20185;-48
2023/08/05 12:07:23;;;;;;;2.78;1.90;;;23.90;99.90;;;;;;5013129;28;20566;-48
2023/08/05 12:10:07;;;;;;;3.65;1.60;;;23.90;99.90;;;;;;5012940;28;20201;-50
2023/08/05 12:12:33;;;;;;;2.65;1.77;;;24.00;99.90;;;;;;5012353;28;20580;-49
2023/08/05 12:15:26;;;;;;;2.25;1.70;;;23.50;99.90;;;;;;5012564;28;20175;-48
2023/08/05 12:17:57;;;;;;;3.80;2.70;;;23.40;99.90;;;;;;5012817;28;20605;-47
2023/08/05 12:20:25;;;;;;;4.43;2.47;;;22.70;99.90;;;;;;5012762;28;20202;-47
2023/08/05 12:22:53;;;;;;;3.63;2.28;;;22.40;99.90;;;;;;5012738;28;20195;-48
2023/08/05 12:25:20;;;;;;;5.47;2.45;;;22.10;99.90;;;;;;5022196;28;20274;-48
2023/08/05 12:27:46;;;;;;;3.35;1.80;;;22.00;99.90;;;;;;5031615;28;20683;-47
2023/08/05 12:30:14;;;;;;;5.22;2.22;;;21.80;99.90;;;;;;5031753;28;20175;-47
2023/08/05 12:32:39;;;;;;;2.30;1.98;;;22.10;99.90;;;;;;5030830;28;20815;-47
2023/08/05 12:35:07;;;;;;;4.63;2.30;;;22.10;99.90;;;;;;5030283;28;20266;-48
2023/08/05 12:37:36;;;;;;;3.08;2.20;;;22.30;99.90;;;;;;5030076;28;20159;-48
2023/08/05 12:40:06;;;;;;;1.95;1.83;;;22.20;99.90;;;;;;5029873;28;20576;-48
2023/08/05 12:42:32;;;;;;;2.00;1.80;;;22.20;99.90;;;;;;5029522;28;20171;-47
2023/08/05 12:45:02;;;;;;;2.28;1.80;;;22.00;99.90;;;;;;5029957;28;20171;-48